Haukur — OZ2119 — position and weather

sailwx.info

Track history (hours):
 
Tides and Currents Weather Stations Pressure Air Temp Water Temp Dewpoint Dewpoint Depression Visibility Wind Speed Wind Dir Waves Ship Positions

Haukur

Last reported at 2014-Aug-21 19:33 UTC. Time now 2014-Aug-21 23:56 UTC.
Position N 58°03' E 005°52'.

Length 75 m; draft 6.2 m.

Type: Cargo ship. MMSI: 231812000.

Date/timePositionNaut miles runAvg speedWind from/ knotsBaromVisibWave heightAir tempDewpointWater temp
2014-Aug-21 19:33N 58°03' E 005°52'9 8.9
2014-Aug-21 18:33N 58°09' E 005°39'9 8.7
2014-Aug-21 17:29N 58°15' E 005°26'26 7.8
2014-Aug-21 14:11N 58°40' E 005°17'5 8.2
2014-Aug-21 13:33N 58°45' E 005°18'9 9.1
2014-Aug-21 12:33N 58°54' E 005°19'9 8.8
2014-Aug-21 11:33N 59°03' E 005°19'9 8.7
2014-Aug-21 10:33N 59°10' E 005°31'10 9.6
2014-Aug-21 09:33N 59°16' E 005°44'9 9.3
2014-Aug-21 08:33N 59°21' E 005°60'2 1.9
2014-Aug-21 07:33N 59°22' E 006°03'0 0.0
2014-Aug-21 06:33N 59°22' E 006°03'0 0.0
2014-Aug-21 05:33N 59°22' E 006°03'0 0.0
2014-Aug-21 04:33N 59°22' E 006°03'0 0.0
2014-Aug-21 03:33N 59°22' E 006°03'0 0.0
2014-Aug-21 02:33N 59°22' E 006°03'0 0.0
2014-Aug-21 01:33N 59°22' E 006°03'0 0.0
2014-Aug-21 00:33N 59°22' E 006°03'0 0.0
2014-Aug-20 23:33N 59°22' E 006°03'1 0.9
2014-Aug-20 22:33N 59°22' E 006°01'1010.1
2014-Aug-20 21:33N 59°16' E 005°45'10 9.9
2014-Aug-20 20:33N 59°09' E 005°32'9 9.2
2014-Aug-20 19:33N 59°04' E 005°17'9 9.5
2014-Aug-20 18:33N 59°10' E 005°04'  
2014-Aug-17 07:25N 66°25' E 011°37'8 9.0
2014-Aug-17 06:33N 66°31' E 011°48'9 9.1
2014-Aug-17 05:34N 66°38' E 012°01'9 9.2
2014-Aug-17 04:33N 66°46' E 012°14'75 9.3
2014-Aug-16 20:27N 67°48' E 014°07'10 0.4
2014-Aug-15 19:28N 67°56' E 014°21'  
Track history (hours):
 
Tides and Currents Weather Stations Pressure Air Temp Water Temp Dewpoint Dewpoint Depression Visibility Wind Speed Wind Dir Waves Ship Positions

Haukur

Last reported at 2014-Aug-21 19:33 UTC. Time now 2014-Aug-21 23:56 UTC.
Position N 58°03' E 005°52'.

Length 75 m; draft 6.2 m.

Type: Cargo ship. MMSI: 231812000.

Date/timePositionNaut miles runAvg speedWind from/ knotsBaromVisibWave heightAir tempDewpointWater temp
2014-Aug-21 19:33N 58°03' E 005°52'9 8.9
2014-Aug-21 18:33N 58°09' E 005°39'9 8.7
2014-Aug-21 17:29N 58°15' E 005°26'26 7.8
2014-Aug-21 14:11N 58°40' E 005°17'5 8.2
2014-Aug-21 13:33N 58°45' E 005°18'9 9.1
2014-Aug-21 12:33N 58°54' E 005°19'9 8.8
2014-Aug-21 11:33N 59°03' E 005°19'9 8.7
2014-Aug-21 10:33N 59°10' E 005°31'10 9.6
2014-Aug-21 09:33N 59°16' E 005°44'9 9.3
2014-Aug-21 08:33N 59°21' E 005°60'2 1.9
2014-Aug-21 07:33N 59°22' E 006°03'0 0.0
2014-Aug-21 06:33N 59°22' E 006°03'0 0.0
2014-Aug-21 05:33N 59°22' E 006°03'0 0.0
2014-Aug-21 04:33N 59°22' E 006°03'0 0.0
2014-Aug-21 03:33N 59°22' E 006°03'0 0.0
2014-Aug-21 02:33N 59°22' E 006°03'0 0.0
2014-Aug-21 01:33N 59°22' E 006°03'0 0.0
2014-Aug-21 00:33N 59°22' E 006°03'0 0.0
2014-Aug-20 23:33N 59°22' E 006°03'1 0.9
2014-Aug-20 22:33N 59°22' E 006°01'1010.1
2014-Aug-20 21:33N 59°16' E 005°45'10 9.9
2014-Aug-20 20:33N 59°09' E 005°32'9 9.2
2014-Aug-20 19:33N 59°04' E 005°17'9 9.5
2014-Aug-20 18:33N 59°10' E 005°04'  
2014-Aug-17 07:25N 66°25' E 011°37'8 9.0
2014-Aug-17 06:33N 66°31' E 011°48'9 9.1
2014-Aug-17 05:34N 66°38' E 012°01'9 9.2
2014-Aug-17 04:33N 66°46' E 012°14'75 9.3
2014-Aug-16 20:27N 67°48' E 014°07'10 0.4
2014-Aug-15 19:28N 67°56' E 014°21'  

Dump ship's entire track history